sensor_id;sensor_type;location;lat;lon;timestamp;P1;durP1;ratioP1;P2;durP2;ratioP2
21438;SDS011;10880;50.302;18.736;2024-02-04T00:00:48;2.20;;;2.00;;
21438;SDS011;10880;50.302;18.736;2024-02-04T00:03:15;3.87;;;2.60;;
21438;SDS011;10880;50.302;18.736;2024-02-04T00:05:42;4.63;;;2.90;;
21438;SDS011;10880;50.302;18.736;2024-02-04T00:08:09;4.97;;;3.00;;
21438;SDS011;10880;50.302;18.736;2024-02-04T00:10:36;5.20;;;3.17;;
21438;SDS011;10880;50.302;18.736;2024-02-04T00:13:02;7.50;;;3.57;;
21438;SDS011;10880;50.302;18.736;2024-02-04T00:15:29;4.33;;;2.90;;
21438;SDS011;10880;50.302;18.736;2024-02-04T00:17:55;4.93;;;2.77;;
21438;SDS011;10880;50.302;18.736;2024-02-04T00:20:22;2.90;;;2.47;;
21438;SDS011;10880;50.302;18.736;2024-02-04T00:22:51;3.37;;;2.40;;
21438;SDS011;10880;50.302;18.736;2024-02-04T00:25:17;3.80;;;2.57;;
21438;SDS011;10880;50.302;18.736;2024-02-04T00:27:45;4.57;;;2.90;;
21438;SDS011;10880;50.302;18.736;2024-02-04T00:30:12;4.43;;;2.40;;
21438;SDS011;10880;50.302;18.736;2024-02-04T00:32:39;4.70;;;2.87;;
21438;SDS011;10880;50.302;18.736;2024-02-04T00:35:05;4.87;;;2.80;;
21438;SDS011;10880;50.302;18.736;2024-02-04T00:37:32;3.30;;;2.60;;
21438;SDS011;10880;50.302;18.736;2024-02-04T00:39:59;3.77;;;2.80;;
21438;SDS011;10880;50.302;18.736;2024-02-04T00:42:25;3.90;;;2.60;;
21438;SDS011;10880;50.302;18.736;2024-02-04T00:44:52;4.10;;;2.80;;
21438;SDS011;10880;50.302;18.736;2024-02-04T00:47:19;5.03;;;2.70;;
21438;SDS011;10880;50.302;18.736;2024-02-04T00:49:46;3.23;;;2.60;;
21438;SDS011;10880;50.302;18.736;2024-02-04T00:52:12;3.67;;;2.67;;
21438;SDS011;10880;50.302;18.736;2024-02-04T00:54:39;4.27;;;2.60;;
21438;SDS011;10880;50.302;18.736;2024-02-04T00:57:06;5.80;;;2.77;;
21438;SDS011;10880;50.302;18.736;2024-02-04T00:59:33;4.23;;;2.87;;
21438;SDS011;10880;50.302;18.736;2024-02-04T01:01:59;5.30;;;2.77;;
21438;SDS011;10880;50.302;18.736;2024-02-04T01:04:26;4.27;;;2.50;;
21438;SDS011;10880;50.302;18.736;2024-02-04T01:06:53;2.73;;;2.40;;
21438;SDS011;10880;50.302;18.736;2024-02-04T01:09:20;3.40;;;2.50;;
21438;SDS011;10880;50.302;18.736;2024-02-04T01:11:46;2.90;;;2.50;;
21438;SDS011;10880;50.302;18.736;2024-02-04T01:14:13;2.30;;;2.10;;
21438;SDS011;10880;50.302;18.736;2024-02-04T01:16:40;3.20;;;2.57;;
21438;SDS011;10880;50.302;18.736;2024-02-04T01:19:07;4.43;;;2.83;;
21438;SDS011;10880;50.302;18.736;2024-02-04T01:21:33;2.83;;;2.47;;
21438;SDS011;10880;50.302;18.736;2024-02-04T01:24:00;2.40;;;2.20;;
21438;SDS011;10880;50.302;18.736;2024-02-04T01:26:27;2.30;;;2.10;;
21438;SDS011;10880;50.302;18.736;2024-02-04T01:28:53;3.10;;;2.20;;
21438;SDS011;10880;50.302;18.736;2024-02-04T01:31:20;2.70;;;2.50;;
21438;SDS011;10880;50.302;18.736;2024-02-04T01:33:48;2.50;;;2.30;;
21438;SDS011;10880;50.302;18.736;2024-02-04T01:36:15;2.50;;;2.30;;
21438;SDS011;10880;50.302;18.736;2024-02-04T01:38:42;2.73;;;2.40;;
21438;SDS011;10880;50.302;18.736;2024-02-04T01:41:10;2.93;;;2.60;;
21438;SDS011;10880;50.302;18.736;2024-02-04T01:43:36;3.17;;;2.50;;
21438;SDS011;10880;50.302;18.736;2024-02-04T01:46:03;2.50;;;2.30;;
21438;SDS011;10880;50.302;18.736;2024-02-04T01:48:30;3.20;;;2.60;;
21438;SDS011;10880;50.302;18.736;2024-02-04T01:50:56;2.70;;;2.30;;
21438;SDS011;10880;50.302;18.736;2024-02-04T01:53:24;2.70;;;2.50;;
21438;SDS011;10880;50.302;18.736;2024-02-04T01:55:53;3.13;;;2.57;;
21438;SDS011;10880;50.302;18.736;2024-02-04T01:58:22;2.83;;;2.57;;
21438;SDS011;10880;50.302;18.736;2024-02-04T02:00:48;2.20;;;2.00;;
21438;SDS011;10880;50.302;18.736;2024-02-04T02:03:17;2.77;;;2.47;;
21438;SDS011;10880;50.302;18.736;2024-02-04T02:05:44;2.33;;;2.13;;
21438;SDS011;10880;50.302;18.736;2024-02-04T02:08:11;2.40;;;2.20;;
21438;SDS011;10880;50.302;18.736;2024-02-04T02:10:38;3.07;;;2.60;;
21438;SDS011;10880;50.302;18.736;2024-02-04T02:13:14;2.43;;;2.23;;
21438;SDS011;10880;50.302;18.736;2024-02-04T02:15:44;2.40;;;2.13;;
21438;SDS011;10880;50.302;18.736;2024-02-04T02:23:53;1.80;;;1.70;;
21438;SDS011;10880;50.302;18.736;2024-02-04T02:26:40;2.10;;;1.90;;
21438;SDS011;10880;50.302;18.736;2024-02-04T02:29:07;2.00;;;1.80;;
21438;SDS011;10880;50.302;18.736;2024-02-04T02:31:35;1.90;;;1.80;;
21438;SDS011;10880;50.302;18.736;2024-02-04T02:34:05;1.70;;;1.60;;
21438;SDS011;10880;50.302;18.736;2024-02-04T02:36:45;1.80;;;1.70;;
21438;SDS011;10880;50.302;18.736;2024-02-04T02:39:38;2.17;;;1.97;;
21438;SDS011;10880;50.302;18.736;2024-02-04T02:42:11;1.83;;;1.73;;
21438;SDS011;10880;50.302;18.736;2024-02-04T02:44:38;1.90;;;1.80;;
21438;SDS011;10880;50.302;18.736;2024-02-04T02:47:05;1.80;;;1.70;;
21438;SDS011;10880;50.302;18.736;2024-02-04T02:49:33;2.20;;;1.63;;
21438;SDS011;10880;50.302;18.736;2024-02-04T02:52:00;1.90;;;1.80;;
21438;SDS011;10880;50.302;18.736;2024-02-04T02:54:27;2.10;;;1.90;;
21438;SDS011;10880;50.302;18.736;2024-02-04T02:56:53;1.90;;;1.80;;
21438;SDS011;10880;50.302;18.736;2024-02-04T02:59:20;1.70;;;1.60;;
21438;SDS011;10880;50.302;18.736;2024-02-04T03:01:47;1.60;;;1.50;;
21438;SDS011;10880;50.302;18.736;2024-02-04T03:04:13;1.80;;;1.70;;
21438;SDS011;10880;50.302;18.736;2024-02-04T03:06:40;1.70;;;1.60;;
21438;SDS011;10880;50.302;18.736;2024-02-04T03:09:07;1.90;;;1.70;;
21438;SDS011;10880;50.302;18.736;2024-02-04T03:11:34;1.60;;;1.53;;
21438;SDS011;10880;50.302;18.736;2024-02-04T03:14:02;1.73;;;1.63;;
21438;SDS011;10880;50.302;18.736;2024-02-04T03:16:29;1.93;;;1.83;;
21438;SDS011;10880;50.302;18.736;2024-02-04T03:18:56;1.83;;;1.73;;
21438;SDS011;10880;50.302;18.736;2024-02-04T03:21:22;1.70;;;1.60;;
21438;SDS011;10880;50.302;18.736;2024-02-04T03:23:49;1.80;;;1.70;;
21438;SDS011;10880;50.302;18.736;2024-02-04T03:26:16;1.77;;;1.67;;
21438;SDS011;10880;50.302;18.736;2024-02-04T03:28:47;1.53;;;1.50;;
21438;SDS011;10880;50.302;18.736;2024-02-04T03:31:21;1.97;;;1.77;;
21438;SDS011;10880;50.302;18.736;2024-02-04T03:33:50;1.60;;;1.50;;
21438;SDS011;10880;50.302;18.736;2024-02-04T03:36:21;1.83;;;1.73;;
21438;SDS011;10880;50.302;18.736;2024-02-04T03:38:49;1.40;;;1.40;;
21438;SDS011;10880;50.302;18.736;2024-02-04T03:41:17;1.73;;;1.63;;
21438;SDS011;10880;50.302;18.736;2024-02-04T03:43:44;1.77;;;1.67;;
21438;SDS011;10880;50.302;18.736;2024-02-04T03:46:14;1.63;;;1.63;;
21438;SDS011;10880;50.302;18.736;2024-02-04T03:48:42;1.70;;;1.60;;
21438;SDS011;10880;50.302;18.736;2024-02-04T03:51:14;1.53;;;1.43;;
21438;SDS011;10880;50.302;18.736;2024-02-04T03:53:43;1.60;;;1.50;;
21438;SDS011;10880;50.302;18.736;2024-02-04T03:56:09;1.70;;;1.60;;
21438;SDS011;10880;50.302;18.736;2024-02-04T03:58:36;1.67;;;1.57;;
21438;SDS011;10880;50.302;18.736;2024-02-04T04:01:03;1.63;;;1.53;;
21438;SDS011;10880;50.302;18.736;2024-02-04T04:03:30;1.70;;;1.60;;
21438;SDS011;10880;50.302;18.736;2024-02-04T04:05:57;1.63;;;1.53;;
21438;SDS011;10880;50.302;18.736;2024-02-04T04:08:23;1.40;;;1.40;;
21438;SDS011;10880;50.302;18.736;2024-02-04T04:10:50;1.73;;;1.63;;
21438;SDS011;10880;50.302;18.736;2024-02-04T04:13:17;1.70;;;1.60;;
21438;SDS011;10880;50.302;18.736;2024-02-04T04:15:43;1.60;;;1.50;;
21438;SDS011;10880;50.302;18.736;2024-02-04T04:18:10;1.90;;;1.80;;
21438;SDS011;10880;50.302;18.736;2024-02-04T04:20:38;2.07;;;1.97;;
21438;SDS011;10880;50.302;18.736;2024-02-04T04:23:05;1.73;;;1.63;;
21438;SDS011;10880;50.302;18.736;2024-02-04T04:25:32;1.80;;;1.70;;
21438;SDS011;10880;50.302;18.736;2024-02-04T04:27:59;1.90;;;1.80;;
21438;SDS011;10880;50.302;18.736;2024-02-04T04:30:25;1.70;;;1.60;;
21438;SDS011;10880;50.302;18.736;2024-02-04T04:32:52;2.20;;;1.80;;
21438;SDS011;10880;50.302;18.736;2024-02-04T04:35:19;1.90;;;1.80;;
21438;SDS011;10880;50.302;18.736;2024-02-04T04:37:45;1.80;;;1.70;;
21438;SDS011;10880;50.302;18.736;2024-02-04T04:40:12;2.03;;;1.93;;
21438;SDS011;10880;50.302;18.736;2024-02-04T04:42:39;2.00;;;1.90;;
21438;SDS011;10880;50.302;18.736;2024-02-04T04:45:06;2.10;;;1.80;;
21438;SDS011;10880;50.302;18.736;2024-02-04T04:47:34;1.83;;;1.73;;
21438;SDS011;10880;50.302;18.736;2024-02-04T04:50:00;2.00;;;1.90;;
21438;SDS011;10880;50.302;18.736;2024-02-04T04:52:27;2.30;;;2.10;;
21438;SDS011;10880;50.302;18.736;2024-02-04T04:54:54;2.30;;;2.10;;
21438;SDS011;10880;50.302;18.736;2024-02-04T04:57:22;2.03;;;1.83;;
21438;SDS011;10880;50.302;18.736;2024-02-04T04:59:48;2.17;;;1.70;;
21438;SDS011;10880;50.302;18.736;2024-02-04T05:02:15;1.87;;;1.77;;
21438;SDS011;10880;50.302;18.736;2024-02-04T05:04:42;1.80;;;1.70;;
21438;SDS011;10880;50.302;18.736;2024-02-04T05:07:10;2.30;;;1.73;;
21438;SDS011;10880;50.302;18.736;2024-02-04T05:09:37;2.50;;;2.23;;
21438;SDS011;10880;50.302;18.736;2024-02-04T05:12:04;1.83;;;1.60;;
21438;SDS011;10880;50.302;18.736;2024-02-04T05:14:31;1.80;;;1.70;;
21438;SDS011;10880;50.302;18.736;2024-02-04T05:16:57;1.93;;;1.83;;
21438;SDS011;10880;50.302;18.736;2024-02-04T05:19:24;1.97;;;1.87;;
21438;SDS011;10880;50.302;18.736;2024-02-04T05:21:51;2.10;;;1.90;;
21438;SDS011;10880;50.302;18.736;2024-02-04T05:24:18;2.20;;;2.10;;
21438;SDS011;10880;50.302;18.736;2024-02-04T05:26:44;2.10;;;2.00;;
21438;SDS011;10880;50.302;18.736;2024-02-04T05:29:11;2.00;;;1.80;;
21438;SDS011;10880;50.302;18.736;2024-02-04T05:31:41;2.20;;;2.10;;
21438;SDS011;10880;50.302;18.736;2024-02-04T05:34:08;2.33;;;2.13;;
21438;SDS011;10880;50.302;18.736;2024-02-04T05:36:35;2.23;;;2.07;;
21438;SDS011;10880;50.302;18.736;2024-02-04T05:39:12;2.47;;;2.27;;
21438;SDS011;10880;50.302;18.736;2024-02-04T05:41:39;2.13;;;1.93;;
21438;SDS011;10880;50.302;18.736;2024-02-04T05:44:06;2.20;;;2.00;;
21438;SDS011;10880;50.302;18.736;2024-02-04T05:46:36;2.07;;;1.97;;
21438;SDS011;10880;50.302;18.736;2024-02-04T05:49:03;2.00;;;1.80;;
21438;SDS011;10880;50.302;18.736;2024-02-04T05:51:39;2.00;;;1.83;;
21438;SDS011;10880;50.302;18.736;2024-02-04T05:54:07;1.80;;;1.70;;
21438;SDS011;10880;50.302;18.736;2024-02-04T05:56:34;2.00;;;1.80;;
21438;SDS011;10880;50.302;18.736;2024-02-04T05:59:01;2.00;;;1.80;;
21438;SDS011;10880;50.302;18.736;2024-02-04T06:01:28;2.43;;;1.80;;
21438;SDS011;10880;50.302;18.736;2024-02-04T06:03:54;2.33;;;1.70;;
21438;SDS011;10880;50.302;18.736;2024-02-04T06:06:21;1.70;;;1.60;;
21438;SDS011;10880;50.302;18.736;2024-02-04T06:08:48;1.60;;;1.50;;
21438;SDS011;10880;50.302;18.736;2024-02-04T06:11:15;2.00;;;1.80;;
21438;SDS011;10880;50.302;18.736;2024-02-04T06:13:42;2.00;;;1.70;;
21438;SDS011;10880;50.302;18.736;2024-02-04T06:16:10;1.87;;;1.67;;
21438;SDS011;10880;50.302;18.736;2024-02-04T06:18:40;1.63;;;1.53;;
21438;SDS011;10880;50.302;18.736;2024-02-04T06:21:07;2.00;;;1.70;;
21438;SDS011;10880;50.302;18.736;2024-02-04T06:23:33;1.70;;;1.60;;
21438;SDS011;10880;50.302;18.736;2024-02-04T06:26:00;1.87;;;1.70;;
21438;SDS011;10880;50.302;18.736;2024-02-04T06:28:27;1.80;;;1.70;;
21438;SDS011;10880;50.302;18.736;2024-02-04T06:30:54;1.70;;;1.60;;
21438;SDS011;10880;50.302;18.736;2024-02-04T06:33:20;2.07;;;1.70;;
21438;SDS011;10880;50.302;18.736;2024-02-04T06:35:48;1.70;;;1.60;;
21438;SDS011;10880;50.302;18.736;2024-02-04T06:38:15;1.90;;;1.80;;
21438;SDS011;10880;50.302;18.736;2024-02-04T06:40:42;1.70;;;1.60;;
21438;SDS011;10880;50.302;18.736;2024-02-04T06:43:09;2.33;;;1.90;;
21438;SDS011;10880;50.302;18.736;2024-02-04T06:45:35;2.33;;;1.70;;
21438;SDS011;10880;50.302;18.736;2024-02-04T06:48:02;1.90;;;1.77;;
21438;SDS011;10880;50.302;18.736;2024-02-04T06:50:29;3.50;;;1.80;;
21438;SDS011;10880;50.302;18.736;2024-02-04T06:52:55;1.77;;;1.60;;
21438;SDS011;10880;50.302;18.736;2024-02-04T06:55:22;1.70;;;1.60;;
21438;SDS011;10880;50.302;18.736;2024-02-04T06:57:52;1.60;;;1.50;;
21438;SDS011;10880;50.302;18.736;2024-02-04T07:00:19;2.20;;;1.83;;
21438;SDS011;10880;50.302;18.736;2024-02-04T07:02:47;1.93;;;1.80;;
21438;SDS011;10880;50.302;18.736;2024-02-04T07:05:13;2.00;;;1.80;;
21438;SDS011;10880;50.302;18.736;2024-02-04T07:07:41;2.50;;;1.97;;
21438;SDS011;10880;50.302;18.736;2024-02-04T07:10:08;1.77;;;1.67;;
21438;SDS011;10880;50.302;18.736;2024-02-04T07:12:35;3.23;;;2.20;;
21438;SDS011;10880;50.302;18.736;2024-02-04T07:15:01;2.93;;;2.00;;
21438;SDS011;10880;50.302;18.736;2024-02-04T07:17:28;2.10;;;1.90;;
21438;SDS011;10880;50.302;18.736;2024-02-04T07:19:55;2.53;;;1.73;;
21438;SDS011;10880;50.302;18.736;2024-02-04T07:22:21;2.87;;;1.97;;
21438;SDS011;10880;50.302;18.736;2024-02-04T07:24:48;3.07;;;2.00;;
21438;SDS011;10880;50.302;18.736;2024-02-04T07:27:15;2.23;;;1.90;;
21438;SDS011;10880;50.302;18.736;2024-02-04T07:29:42;2.00;;;1.90;;
21438;SDS011;10880;50.302;18.736;2024-02-04T07:32:08;1.90;;;1.80;;
21438;SDS011;10880;50.302;18.736;2024-02-04T07:34:35;3.07;;;2.00;;
21438;SDS011;10880;50.302;18.736;2024-02-04T07:37:02;3.37;;;1.90;;
21438;SDS011;10880;50.302;18.736;2024-02-04T07:39:29;3.13;;;2.40;;
21438;SDS011;10880;50.302;18.736;2024-02-04T07:41:57;3.13;;;2.03;;
21438;SDS011;10880;50.302;18.736;2024-02-04T07:44:27;2.73;;;1.97;;
21438;SDS011;10880;50.302;18.736;2024-02-04T07:46:54;2.97;;;2.50;;
21438;SDS011;10880;50.302;18.736;2024-02-04T07:49:21;4.13;;;2.87;;
21438;SDS011;10880;50.302;18.736;2024-02-04T07:51:48;4.37;;;2.40;;
21438;SDS011;10880;50.302;18.736;2024-02-04T07:54:15;4.27;;;2.00;;
21438;SDS011;10880;50.302;18.736;2024-02-04T07:56:42;2.57;;;2.10;;
21438;SDS011;10880;50.302;18.736;2024-02-04T07:59:09;1.80;;;1.70;;
21438;SDS011;10880;50.302;18.736;2024-02-04T08:01:36;2.30;;;2.00;;
21438;SDS011;10880;50.302;18.736;2024-02-04T08:04:02;4.37;;;2.17;;
21438;SDS011;10880;50.302;18.736;2024-02-04T08:06:31;2.10;;;1.90;;
21438;SDS011;10880;50.302;18.736;2024-02-04T08:09:00;2.80;;;2.40;;
21438;SDS011;10880;50.302;18.736;2024-02-04T08:11:26;4.23;;;2.50;;
21438;SDS011;10880;50.302;18.736;2024-02-04T08:13:53;6.93;;;2.73;;
21438;SDS011;10880;50.302;18.736;2024-02-04T08:16:20;3.10;;;2.40;;
21438;SDS011;10880;50.302;18.736;2024-02-04T08:18:47;5.00;;;3.83;;
21438;SDS011;10880;50.302;18.736;2024-02-04T08:21:14;7.77;;;3.40;;
21438;SDS011;10880;50.302;18.736;2024-02-04T08:23:40;4.20;;;2.90;;
21438;SDS011;10880;50.302;18.736;2024-02-04T08:26:07;2.90;;;2.50;;
21438;SDS011;10880;50.302;18.736;2024-02-04T08:28:34;2.93;;;2.40;;
21438;SDS011;10880;50.302;18.736;2024-02-04T08:31:01;3.03;;;2.40;;
21438;SDS011;10880;50.302;18.736;2024-02-04T08:33:28;2.70;;;2.23;;
21438;SDS011;10880;50.302;18.736;2024-02-04T08:35:58;4.10;;;2.57;;
21438;SDS011;10880;50.302;18.736;2024-02-04T08:38:24;3.97;;;3.30;;
21438;SDS011;10880;50.302;18.736;2024-02-04T08:40:51;3.67;;;2.80;;
21438;SDS011;10880;50.302;18.736;2024-02-04T08:43:18;3.20;;;2.30;;
21438;SDS011;10880;50.302;18.736;2024-02-04T08:45:44;3.93;;;2.40;;
21438;SDS011;10880;50.302;18.736;2024-02-04T08:48:11;3.60;;;2.67;;
21438;SDS011;10880;50.302;18.736;2024-02-04T08:50:38;4.07;;;2.60;;
21438;SDS011;10880;50.302;18.736;2024-02-04T08:53:05;2.30;;;2.10;;
21438;SDS011;10880;50.302;18.736;2024-02-04T08:55:32;3.60;;;2.90;;
21438;SDS011;10880;50.302;18.736;2024-02-04T08:57:59;3.67;;;2.27;;
21438;SDS011;10880;50.302;18.736;2024-02-04T09:00:25;2.73;;;2.30;;
21438;SDS011;10880;50.302;18.736;2024-02-04T09:02:52;2.17;;;1.90;;
21438;SDS011;10880;50.302;18.736;2024-02-04T09:05:19;2.20;;;2.00;;
21438;SDS011;10880;50.302;18.736;2024-02-04T09:07:46;2.90;;;2.33;;
21438;SDS011;10880;50.302;18.736;2024-02-04T09:10:12;2.80;;;2.07;;
21438;SDS011;10880;50.302;18.736;2024-02-04T09:12:40;2.33;;;2.13;;
21438;SDS011;10880;50.302;18.736;2024-02-04T09:15:07;2.40;;;2.20;;
21438;SDS011;10880;50.302;18.736;2024-02-04T09:17:35;2.70;;;2.40;;
21438;SDS011;10880;50.302;18.736;2024-02-04T09:20:01;4.83;;;2.60;;
21438;SDS011;10880;50.302;18.736;2024-02-04T09:22:28;3.23;;;2.40;;
21438;SDS011;10880;50.302;18.736;2024-02-04T09:24:55;4.83;;;3.20;;
21438;SDS011;10880;50.302;18.736;2024-02-04T09:27:21;3.33;;;2.83;;
21438;SDS011;10880;50.302;18.736;2024-02-04T09:29:48;5.17;;;2.77;;
21438;SDS011;10880;50.302;18.736;2024-02-04T09:32:14;4.90;;;2.80;;
21438;SDS011;10880;50.302;18.736;2024-02-04T09:34:41;3.27;;;2.60;;
21438;SDS011;10880;50.302;18.736;2024-02-04T09:37:08;3.07;;;2.67;;
21438;SDS011;10880;50.302;18.736;2024-02-04T09:39:35;5.03;;;3.10;;
21438;SDS011;10880;50.302;18.736;2024-02-04T09:42:02;4.07;;;2.40;;
21438;SDS011;10880;50.302;18.736;2024-02-04T09:44:29;5.33;;;2.57;;
21438;SDS011;10880;50.302;18.736;2024-02-04T09:46:57;3.37;;;2.40;;
21438;SDS011;10880;50.302;18.736;2024-02-04T09:49:29;3.87;;;2.40;;
21438;SDS011;10880;50.302;18.736;2024-02-04T09:51:58;2.50;;;2.30;;
21438;SDS011;10880;50.302;18.736;2024-02-04T09:54:30;4.53;;;2.40;;
21438;SDS011;10880;50.302;18.736;2024-02-04T09:56:58;5.03;;;2.50;;
21438;SDS011;10880;50.302;18.736;2024-02-04T09:59:25;2.30;;;2.10;;
21438;SDS011;10880;50.302;18.736;2024-02-04T10:01:53;4.17;;;2.50;;
21438;SDS011;10880;50.302;18.736;2024-02-04T10:04:21;3.50;;;2.50;;
21438;SDS011;10880;50.302;18.736;2024-02-04T10:06:48;3.63;;;2.80;;
21438;SDS011;10880;50.302;18.736;2024-02-04T10:09:15;3.33;;;2.70;;
21438;SDS011;10880;50.302;18.736;2024-02-04T10:11:42;3.70;;;2.43;;
21438;SDS011;10880;50.302;18.736;2024-02-04T10:14:09;2.83;;;2.53;;
21438;SDS011;10880;50.302;18.736;2024-02-04T10:16:35;3.13;;;2.40;;
21438;SDS011;10880;50.302;18.736;2024-02-04T10:19:02;2.47;;;2.23;;
21438;SDS011;10880;50.302;18.736;2024-02-04T10:21:29;4.33;;;2.47;;
21438;SDS011;10880;50.302;18.736;2024-02-04T10:23:56;4.20;;;2.50;;
21438;SDS011;10880;50.302;18.736;2024-02-04T10:26:28;3.10;;;2.40;;
21438;SDS011;10880;50.302;18.736;2024-02-04T10:29:00;4.07;;;2.40;;
21438;SDS011;10880;50.302;18.736;2024-02-04T10:31:27;2.60;;;2.40;;
21438;SDS011;10880;50.302;18.736;2024-02-04T10:33:54;3.23;;;2.40;;
21438;SDS011;10880;50.302;18.736;2024-02-04T10:36:21;4.30;;;2.47;;
21438;SDS011;10880;50.302;18.736;2024-02-04T10:38:48;3.43;;;2.33;;
21438;SDS011;10880;50.302;18.736;2024-02-04T10:41:15;3.30;;;2.10;;
21438;SDS011;10880;50.302;18.736;2024-02-04T10:43:43;3.73;;;2.50;;
21438;SDS011;10880;50.302;18.736;2024-02-04T10:46:16;4.13;;;2.80;;
21438;SDS011;10880;50.302;18.736;2024-02-04T10:48:54;6.10;;;3.60;;
21438;SDS011;10880;50.302;18.736;2024-02-04T10:51:24;3.47;;;2.87;;
21438;SDS011;10880;50.302;18.736;2024-02-04T10:53:56;4.53;;;3.17;;
21438;SDS011;10880;50.302;18.736;2024-02-04T10:56:38;4.83;;;2.90;;
21438;SDS011;10880;50.302;18.736;2024-02-04T10:59:07;5.47;;;3.50;;
21438;SDS011;10880;50.302;18.736;2024-02-04T11:01:38;3.90;;;3.00;;
21438;SDS011;10880;50.302;18.736;2024-02-04T11:04:05;4.13;;;2.87;;
21438;SDS011;10880;50.302;18.736;2024-02-04T11:06:34;3.43;;;2.57;;
21438;SDS011;10880;50.302;18.736;2024-02-04T11:09:02;4.03;;;3.00;;
21438;SDS011;10880;50.302;18.736;2024-02-04T11:11:31;3.57;;;2.83;;
21438;SDS011;10880;50.302;18.736;2024-02-04T11:13:59;4.70;;;2.60;;
21438;SDS011;10880;50.302;18.736;2024-02-04T11:26:55;2.70;;;2.03;;
21438;SDS011;10880;50.302;18.736;2024-02-04T11:29:25;3.63;;;2.80;;
21438;SDS011;10880;50.302;18.736;2024-02-04T11:31:53;6.37;;;3.20;;
21438;SDS011;10880;50.302;18.736;2024-02-04T11:34:20;3.63;;;2.93;;
21438;SDS011;10880;50.302;18.736;2024-02-04T11:36:47;3.13;;;2.60;;
21438;SDS011;10880;50.302;18.736;2024-02-04T11:39:18;2.80;;;2.30;;
21438;SDS011;10880;50.302;18.736;2024-02-04T11:41:48;2.90;;;2.20;;
21438;SDS011;10880;50.302;18.736;2024-02-04T11:44:24;2.50;;;2.30;;
21438;SDS011;10880;50.302;18.736;2024-02-04T11:46:54;3.17;;;2.40;;
21438;SDS011;10880;50.302;18.736;2024-02-04T11:49:24;3.33;;;2.87;;
21438;SDS011;10880;50.302;18.736;2024-02-04T11:51:51;2.80;;;2.50;;
21438;SDS011;10880;50.302;18.736;2024-02-04T11:54:19;3.07;;;2.77;;
21438;SDS011;10880;50.302;18.736;2024-02-04T11:56:51;3.67;;;2.77;;
21438;SDS011;10880;50.302;18.736;2024-02-04T11:59:22;3.30;;;2.73;;
21438;SDS011;10880;50.302;18.736;2024-02-04T12:01:53;3.07;;;2.77;;
21438;SDS011;10880;50.302;18.736;2024-02-04T12:04:22;5.20;;;2.83;;
21438;SDS011;10880;50.302;18.736;2024-02-04T12:06:49;4.33;;;2.80;;
21438;SDS011;10880;50.302;18.736;2024-02-04T12:09:17;3.17;;;2.80;;
21438;SDS011;10880;50.302;18.736;2024-02-04T12:11:44;5.17;;;3.13;;
21438;SDS011;10880;50.302;18.736;2024-02-04T12:14:11;5.70;;;3.10;;
21438;SDS011;10880;50.302;18.736;2024-02-04T12:16:40;5.53;;;4.27;;
21438;SDS011;10880;50.302;18.736;2024-02-04T12:19:06;6.07;;;4.63;;
21438;SDS011;10880;50.302;18.736;2024-02-04T12:21:33;6.90;;;4.97;;
21438;SDS011;10880;50.302;18.736;2024-02-04T12:24:01;6.07;;;4.60;;
21438;SDS011;10880;50.302;18.736;2024-02-04T12:30:31;6.80;;;4.13;;
21438;SDS011;10880;50.302;18.736;2024-02-04T12:33:00;5.20;;;3.63;;
21438;SDS011;10880;50.302;18.736;2024-02-04T12:35:30;4.93;;;3.40;;
21438;SDS011;10880;50.302;18.736;2024-02-04T12:37:58;3.30;;;2.80;;
21438;SDS011;10880;50.302;18.736;2024-02-04T12:40:29;4.10;;;3.03;;
21438;SDS011;10880;50.302;18.736;2024-02-04T12:42:57;6.30;;;4.27;;
21438;SDS011;10880;50.302;18.736;2024-02-04T12:45:25;4.60;;;3.73;;
21438;SDS011;10880;50.302;18.736;2024-02-04T12:47:52;4.03;;;3.37;;
21438;SDS011;10880;50.302;18.736;2024-02-04T12:50:20;4.53;;;4.00;;
21438;SDS011;10880;50.302;18.736;2024-02-04T12:53:09;8.43;;;5.70;;
21438;SDS011;10880;50.302;18.736;2024-02-04T12:55:37;7.73;;;5.27;;
21438;SDS011;10880;50.302;18.736;2024-02-04T12:58:05;8.07;;;4.90;;
21438;SDS011;10880;50.302;18.736;2024-02-04T13:00:38;5.13;;;3.90;;
21438;SDS011;10880;50.302;18.736;2024-02-04T13:03:05;5.67;;;3.73;;
21438;SDS011;10880;50.302;18.736;2024-02-04T13:05:37;5.90;;;4.20;;
21438;SDS011;10880;50.302;18.736;2024-02-04T13:08:04;6.67;;;4.17;;
21438;SDS011;10880;50.302;18.736;2024-02-04T13:10:32;6.17;;;3.83;;
21438;SDS011;10880;50.302;18.736;2024-02-04T13:13:06;5.73;;;3.73;;
21438;SDS011;10880;50.302;18.736;2024-02-04T13:15:45;10.53;;;5.70;;
21438;SDS011;10880;50.302;18.736;2024-02-04T13:18:27;8.67;;;5.70;;
21438;SDS011;10880;50.302;18.736;2024-02-04T13:20:54;9.97;;;6.43;;
21438;SDS011;10880;50.302;18.736;2024-02-04T13:23:21;9.63;;;5.60;;
21438;SDS011;10880;50.302;18.736;2024-02-04T13:25:47;7.37;;;4.60;;
21438;SDS011;10880;50.302;18.736;2024-02-04T13:28:14;5.60;;;3.90;;
21438;SDS011;10880;50.302;18.736;2024-02-04T13:30:40;4.03;;;3.43;;
21438;SDS011;10880;50.302;18.736;2024-02-04T13:33:07;6.60;;;3.70;;
21438;SDS011;10880;50.302;18.736;2024-02-04T13:35:34;3.73;;;3.20;;
21438;SDS011;10880;50.302;18.736;2024-02-04T13:38:03;3.83;;;3.40;;
21438;SDS011;10880;50.302;18.736;2024-02-04T13:40:31;4.10;;;3.70;;
21438;SDS011;10880;50.302;18.736;2024-02-04T13:42:58;5.37;;;3.90;;
21438;SDS011;10880;50.302;18.736;2024-02-04T13:45:25;5.27;;;3.83;;
21438;SDS011;10880;50.302;18.736;2024-02-04T13:47:51;3.43;;;3.03;;
21438;SDS011;10880;50.302;18.736;2024-02-04T13:50:18;3.63;;;3.00;;
21438;SDS011;10880;50.302;18.736;2024-02-04T13:52:45;3.67;;;3.27;;
21438;SDS011;10880;50.302;18.736;2024-02-04T13:55:12;3.47;;;3.17;;
21438;SDS011;10880;50.302;18.736;2024-02-04T13:57:38;4.63;;;3.30;;
21438;SDS011;10880;50.302;18.736;2024-02-04T14:00:05;3.57;;;2.80;;
21438;SDS011;10880;50.302;18.736;2024-02-04T14:02:33;3.67;;;3.23;;
21438;SDS011;10880;50.302;18.736;2024-02-04T14:05:00;3.50;;;2.80;;
21438;SDS011;10880;50.302;18.736;2024-02-04T14:07:27;3.97;;;3.00;;
21438;SDS011;10880;50.302;18.736;2024-02-04T14:09:53;3.30;;;3.00;;
21438;SDS011;10880;50.302;18.736;2024-02-04T14:12:20;3.27;;;2.73;;
21438;SDS011;10880;50.302;18.736;2024-02-04T14:14:47;3.33;;;2.70;;
21438;SDS011;10880;50.302;18.736;2024-02-04T14:17:13;2.90;;;2.60;;
21438;SDS011;10880;50.302;18.736;2024-02-04T14:19:40;2.73;;;2.50;;
21438;SDS011;10880;50.302;18.736;2024-02-04T14:22:10;2.63;;;2.30;;
21438;SDS011;10880;50.302;18.736;2024-02-04T14:24:37;3.50;;;2.57;;
21438;SDS011;10880;50.302;18.736;2024-02-04T14:27:04;2.40;;;2.20;;
21438;SDS011;10880;50.302;18.736;2024-02-04T14:29:30;3.30;;;2.63;;
21438;SDS011;10880;50.302;18.736;2024-02-04T14:31:57;7.83;;;5.10;;
21438;SDS011;10880;50.302;18.736;2024-02-04T14:34:24;7.87;;;4.33;;
21438;SDS011;10880;50.302;18.736;2024-02-04T14:36:52;6.47;;;4.43;;
21438;SDS011;10880;50.302;18.736;2024-02-04T14:39:19;4.37;;;3.50;;
21438;SDS011;10880;50.302;18.736;2024-02-04T14:41:46;4.93;;;3.50;;
21438;SDS011;10880;50.302;18.736;2024-02-04T14:44:13;3.40;;;2.67;;
21438;SDS011;10880;50.302;18.736;2024-02-04T14:46:40;3.03;;;2.50;;
21438;SDS011;10880;50.302;18.736;2024-02-04T14:49:08;2.60;;;2.40;;
21438;SDS011;10880;50.302;18.736;2024-02-04T14:51:37;3.30;;;2.53;;
21438;SDS011;10880;50.302;18.736;2024-02-04T14:54:04;3.93;;;2.67;;
21438;SDS011;10880;50.302;18.736;2024-02-04T14:56:36;3.77;;;2.93;;